Time;durP1;ratioP1;P1;durP2;ratioP2;P2;SDS_P1;SDS_P2;PMS_P1;PMS_P2;Temp;Humidity;BMP_temperature;BMP_pressure;BME280_temperature;BME280_humidity;BME280_pressure;Samples;Min_cycle;Max_cycle;Signal;HPM_P1;HPM_P2
2022/07/28 00:02:17;;;;;;;;;;;17.20;79.10;;;;;;5073775;28;19982;-61
2022/07/28 00:04:43;;;;;;;;;;;17.30;79.00;;;;;;5074127;28;19916;-61
2022/07/28 00:07:09;;;;;;;;;;;17.30;79.70;;;;;;5058390;28;19995;-61
2022/07/28 00:09:34;;;;;;;;;;;17.30;79.20;;;;;;5057005;28;19916;-61
2022/07/28 00:12:00;;;;;;;;;;;17.20;79.70;;;;;;5073916;28;19917;-59
2022/07/28 00:14:26;;;;;;;;;;;17.20;78.40;;;;;;5074540;28;20448;-61
2022/07/28 00:16:51;;;;;;;;;;;17.10;78.10;;;;;;5069205;28;20432;-57
2022/07/28 00:19:17;;;;;;;;;;;17.00;79.40;;;;;;5089041;28;19916;-58
2022/07/28 00:21:43;;;;;;;;;;;16.80;79.80;;;;;;5084745;28;19908;-59
2022/07/28 00:24:08;;;;;;;;;;;16.80;79.80;;;;;;5077396;28;19947;-59
2022/07/28 00:26:34;;;;;;;;;;;16.90;79.70;;;;;;5073620;28;19920;-60
2022/07/28 00:28:59;;;;;;;;;;;16.80;80.80;;;;;;5073314;28;19909;-61
2022/07/28 00:31:25;;;;;;;;;;;16.70;81.00;;;;;;5074160;28;19916;-60
2022/07/28 00:33:50;;;;;;;;;;;16.70;81.40;;;;;;5070471;28;20430;-61
2022/07/28 00:36:16;;;;;;;;;;;16.60;81.70;;;;;;5072556;28;20608;-61
2022/07/28 00:38:42;;;;;;;;;;;16.60;82.70;;;;;;5067269;28;19916;-60
2022/07/28 00:41:10;;;;;;;;;;;16.60;82.40;;;;;;5070180;28;19917;-60
2022/07/28 00:43:39;;;;;;;;;;;16.60;82.50;;;;;;5074014;28;19916;-59
2022/07/28 00:46:05;;;;;;;;;;;16.60;82.10;;;;;;5072118;28;19920;-60
2022/07/28 00:48:31;;;;;;;;;;;16.60;81.90;;;;;;5066559;28;20361;-59
2022/07/28 00:50:56;;;;;;;;;;;16.50;82.60;;;;;;5055133;28;19916;-60
2022/07/28 00:53:22;;;;;;;;;;;16.50;82.50;;;;;;5069564;28;20031;-60
2022/07/28 00:55:48;;;;;;;;;;;16.40;82.60;;;;;;5064499;28;19923;-59
2022/07/28 00:58:13;;;;;;;;;;;16.40;82.50;;;;;;5073025;28;19920;-59
2022/07/28 01:00:39;;;;;;;;;;;16.30;83.00;;;;;;5067519;28;20003;-59
2022/07/28 01:03:05;;;;;;;;;;;16.20;83.10;;;;;;5054280;28;20364;-60
2022/07/28 01:05:49;;;;;;;;;;;16.20;83.70;;;;;;5054115;28;20364;-60
2022/07/28 01:08:22;;;;;;;;;;;16.20;83.40;;;;;;5054045;28;20401;-60
2022/07/28 01:11:08;;;;;;;;;;;16.20;83.60;;;;;;5065442;28;19912;-61
2022/07/28 01:13:37;;;;;;;;;;;16.10;83.80;;;;;;5071114;28;19908;-60
2022/07/28 01:16:04;;;;;;;;;;;16.10;83.30;;;;;;5058680;28;20441;-59
2022/07/28 01:18:39;;;;;;;;;;;16.00;83.80;;;;;;5053306;28;20039;-58
2022/07/28 01:21:09;;;;;;;;;;;16.00;83.70;;;;;;5071313;28;19916;-57
2022/07/28 01:24:04;;;;;;;;;;;16.10;83.70;;;;;;5074100;28;19919;-58
2022/07/28 01:26:29;;;;;;;;;;;16.00;83.90;;;;;;5052515;28;20380;-58
2022/07/28 01:29:06;;;;;;;;;;;16.00;83.80;;;;;;5068083;28;19923;-58
2022/07/28 01:31:36;;;;;;;;;;;16.00;84.20;;;;;;5072582;28;19961;-60
2022/07/28 01:34:07;;;;;;;;;;;15.80;85.30;;;;;;5066469;28;19913;-57
2022/07/28 01:36:37;;;;;;;;;;;15.80;85.40;;;;;;5072925;28;19913;-60
2022/07/28 01:39:03;;;;;;;;;;;15.80;86.10;;;;;;5059275;28;20007;-59
2022/07/28 01:41:30;;;;;;;;;;;15.80;86.20;;;;;;5054446;28;19924;-58
2022/07/28 01:44:00;;;;;;;;;;;15.80;85.90;;;;;;5059814;28;19908;-60
2022/07/28 01:46:26;;;;;;;;;;;15.70;86.40;;;;;;5068458;28;20007;-60
2022/07/28 01:48:52;;;;;;;;;;;15.60;86.20;;;;;;5052954;28;20011;-58
2022/07/28 01:51:19;;;;;;;;;;;15.50;87.20;;;;;;5065311;28;19922;-60
2022/07/28 01:53:45;;;;;;;;;;;15.40;87.70;;;;;;5055161;28;19944;-58
2022/07/28 01:56:11;;;;;;;;;;;15.30;88.20;;;;;;5072560;28;19916;-59
2022/07/28 01:58:37;;;;;;;;;;;15.30;88.70;;;;;;5070789;28;19916;-59
2022/07/28 02:01:03;;;;;;;;;;;15.30;89.10;;;;;;5061261;28;19916;-59
2022/07/28 02:03:30;;;;;;;;;;;15.40;89.00;;;;;;5059648;28;19978;-61
2022/07/28 02:05:57;;;;;;;;;;;15.50;88.40;;;;;;5071873;28;19959;-60
2022/07/28 02:08:23;;;;;;;;;;;15.50;88.20;;;;;;5060392;28;19917;-60
2022/07/28 02:13:35;;;;;;;;;;;15.50;87.80;;;;;;5073123;28;19921;-59
2022/07/28 02:16:03;;;;;;;;;;;15.50;88.50;;;;;;5071741;28;20327;-60
2022/07/28 02:18:29;;;;;;;;;;;15.50;88.10;;;;;;5050429;28;19917;-58
2022/07/28 02:20:58;;;;;;;;;;;15.40;88.80;;;;;;5054364;28;19913;-60
2022/07/28 02:29:32;;;;;;;;;;;15.10;89.70;;;;;;5070493;28;19913;-59
2022/07/28 02:32:06;;;;;;;;;;;15.00;90.30;;;;;;5061937;28;19919;-59
2022/07/28 02:34:32;;;;;;;;;;;15.00;90.00;;;;;;5051612;28;19913;-59
2022/07/28 02:37:01;;;;;;;;;;;15.00;90.10;;;;;;5064011;28;19924;-58
2022/07/28 02:39:31;;;;;;;;;;;14.80;90.80;;;;;;5051227;28;19919;-58
2022/07/28 02:42:01;;;;;;;;;;;14.70;90.80;;;;;;5055118;28;19917;-57
2022/07/28 02:44:29;;;;;;;;;;;14.70;90.70;;;;;;5064901;28;19917;-59
2022/07/28 02:46:56;;;;;;;;;;;14.70;91.10;;;;;;5072429;28;19918;-58
2022/07/28 02:49:28;;;;;;;;;;;14.70;90.90;;;;;;5071302;28;19913;-55
2022/07/28 02:51:55;;;;;;;;;;;14.80;90.90;;;;;;5051238;28;19909;-57
2022/07/28 02:54:22;;;;;;;;;;;14.70;90.90;;;;;;5072544;28;20346;-59
2022/07/28 02:56:49;;;;;;;;;;;14.70;91.20;;;;;;5069956;28;19995;-58
2022/07/28 02:59:15;;;;;;;;;;;14.80;91.20;;;;;;5070694;28;19920;-59
2022/07/28 03:01:42;;;;;;;;;;;14.80;91.10;;;;;;5068832;28;20306;-56
2022/07/28 03:04:08;;;;;;;;;;;14.70;91.20;;;;;;5053990;28;19913;-57
2022/07/28 03:06:34;;;;;;;;;;;14.70;91.30;;;;;;5056053;28;20011;-58
2022/07/28 03:09:00;;;;;;;;;;;14.70;91.40;;;;;;5076604;28;20386;-59
2022/07/28 03:11:26;;;;;;;;;;;14.70;91.70;;;;;;5074766;28;19913;-59
2022/07/28 03:13:52;;;;;;;;;;;14.70;91.80;;;;;;5075459;28;19924;-59
2022/07/28 03:16:17;;;;;;;;;;;14.70;91.80;;;;;;5073217;28;19912;-59
2022/07/28 03:18:43;;;;;;;;;;;14.70;92.20;;;;;;5074845;28;19920;-58
2022/07/28 03:21:08;;;;;;;;;;;14.80;92.20;;;;;;5060655;28;19967;-59
2022/07/28 03:23:40;;;;;;;;;;;14.90;91.90;;;;;;5056168;28;20398;-59
2022/07/28 03:26:14;;;;;;;;;;;15.00;91.70;;;;;;5062825;28;19955;-58
2022/07/28 03:28:41;;;;;;;;;;;15.10;91.50;;;;;;5067160;28;19912;-60
2022/07/28 03:31:08;;;;;;;;;;;15.10;91.20;;;;;;5075381;28;19913;-58
2022/07/28 03:33:33;;;;;;;;;;;15.00;91.60;;;;;;5064142;28;19909;-57
2022/07/28 03:36:01;;;;;;;;;;;14.90;91.50;;;;;;5055062;28;19913;-58
2022/07/28 03:38:36;;;;;;;;;;;14.80;91.90;;;;;;5059952;28;20447;-59
2022/07/28 03:41:02;;;;;;;;;;;14.80;91.70;;;;;;5062524;28;19963;-59
2022/07/28 03:43:28;;;;;;;;;;;14.90;91.80;;;;;;5073721;28;19913;-59
2022/07/28 03:45:54;;;;;;;;;;;14.80;91.90;;;;;;5073748;28;19913;-58
2022/07/28 03:48:23;;;;;;;;;;;14.70;92.60;;;;;;5057608;28;19921;-56
2022/07/28 03:50:49;;;;;;;;;;;14.60;92.80;;;;;;5058447;28;19919;-58
2022/07/28 03:53:19;;;;;;;;;;;14.70;92.30;;;;;;5073693;28;19912;-58
2022/07/28 03:55:49;;;;;;;;;;;14.70;92.70;;;;;;5066600;28;19916;-58
2022/07/28 03:58:24;;;;;;;;;;;14.80;92.60;;;;;;5073421;28;19923;-57
2022/07/28 04:00:50;;;;;;;;;;;14.70;92.90;;;;;;5053182;28;20430;-60
2022/07/28 04:03:17;;;;;;;;;;;14.70;93.40;;;;;;5053893;28;19921;-59
2022/07/28 04:14:51;;;;;;;;;;;14.90;92.60;;;;;;5052916;28;20027;-58
2022/07/28 04:17:16;;;;;;;;;;;15.00;92.70;;;;;;5071195;28;20008;-56
2022/07/28 04:19:42;;;;;;;;;;;15.10;92.60;;;;;;5072184;28;19912;-59
2022/07/28 04:22:07;;;;;;;;;;;15.10;92.50;;;;;;5067842;28;20007;-59
2022/07/28 04:24:33;;;;;;;;;;;15.10;92.60;;;;;;5067446;28;19916;-59
2022/07/28 04:26:58;;;;;;;;;;;15.10;92.20;;;;;;5066819;28;19916;-58
2022/07/28 04:29:24;;;;;;;;;;;15.10;92.30;;;;;;5070117;28;19935;-59
2022/07/28 04:31:49;;;;;;;;;;;15.10;92.30;;;;;;5072850;28;19923;-58
2022/07/28 04:34:15;;;;;;;;;;;15.10;92.30;;;;;;5073333;28;19912;-58
2022/07/28 04:36:42;;;;;;;;;;;15.20;92.00;;;;;;5071487;28;19917;-58
2022/07/28 04:39:09;;;;;;;;;;;15.00;92.60;;;;;;5072454;28;20292;-58
2022/07/28 04:41:35;;;;;;;;;;;15.10;92.20;;;;;;5072718;28;19920;-59
2022/07/28 04:44:01;;;;;;;;;;;15.10;92.30;;;;;;5069549;28;20372;-57
2022/07/28 04:46:26;;;;;;;;;;;15.10;92.30;;;;;;5069542;28;19970;-58
2022/07/28 04:48:52;;;;;;;;;;;15.00;92.60;;;;;;5073488;28;20300;-56
2022/07/28 04:51:17;;;;;;;;;;;15.20;92.50;;;;;;5060553;28;20473;-58
2022/07/28 04:53:43;;;;;;;;;;;15.10;92.10;;;;;;5061320;28;19912;-57
2022/07/28 04:56:08;;;;;;;;;;;15.10;92.30;;;;;;5069482;28;19912;-58
2022/07/28 04:58:34;;;;;;;;;;;15.00;92.60;;;;;;5069155;28;20621;-58
2022/07/28 05:01:00;;;;;;;;;;;15.10;92.60;;;;;;5062772;28;19917;-59
2022/07/28 05:03:25;;;;;;;;;;;15.20;92.90;;;;;;5050244;28;19913;-54
2022/07/28 05:05:51;;;;;;;;;;;15.20;92.30;;;;;;5064683;28;20384;-58
2022/07/28 05:08:16;;;;;;;;;;;15.10;92.90;;;;;;5061177;28;20380;-58
2022/07/28 05:10:42;;;;;;;;;;;15.30;92.50;;;;;;5061869;28;19912;-58
2022/07/28 05:13:07;;;;;;;;;;;15.40;92.50;;;;;;5070412;28;19916;-58
2022/07/28 05:15:33;;;;;;;;;;;15.50;92.30;;;;;;5069468;28;19921;-58
2022/07/28 05:17:58;;;;;;;;;;;15.60;92.10;;;;;;5069633;28;19920;-57
2022/07/28 05:20:24;;;;;;;;;;;15.60;91.80;;;;;;5070751;28;20431;-56
2022/07/28 05:22:52;;;;;;;;;;;15.60;91.80;;;;;;5070767;28;20011;-56
2022/07/28 05:25:22;;;;;;;;;;;15.70;91.80;;;;;;5071522;28;20516;-57
2022/07/28 05:27:48;;;;;;;;;;;15.90;91.70;;;;;;5072444;28;19927;-58
2022/07/28 05:30:14;;;;;;;;;;;16.00;91.60;;;;;;5071720;28;19909;-54
2022/07/28 05:32:40;;;;;;;;;;;16.10;91.30;;;;;;5066267;28;19918;-59
2022/07/28 05:35:06;;;;;;;;;;;16.30;91.00;;;;;;5070224;28;20328;-57
2022/07/28 05:37:32;;;;;;;;;;;16.00;91.20;;;;;;5070155;28;19920;-59
2022/07/28 05:39:58;;;;;;;;;;;15.60;91.60;;;;;;5068354;28;20007;-59
2022/07/28 05:42:25;;;;;;;;;;;15.50;92.10;;;;;;5071141;28;20007;-58
2022/07/28 05:44:50;;;;;;;;;;;15.60;92.10;;;;;;5070450;28;19939;-58
2022/07/28 05:47:16;;;;;;;;;;;15.60;91.90;;;;;;5054202;28;20365;-55
2022/07/28 05:49:41;;;;;;;;;;;15.50;92.40;;;;;;5062559;28;19912;-55
2022/07/28 05:52:07;;;;;;;;;;;15.70;92.40;;;;;;5069739;28;19917;-58
2022/07/28 05:54:33;;;;;;;;;;;15.70;92.10;;;;;;5069543;28;19916;-56
2022/07/28 05:56:58;;;;;;;;;;;15.60;92.30;;;;;;5068260;28;19916;-58
2022/07/28 05:59:24;;;;;;;;;;;15.70;92.40;;;;;;5069594;28;19920;-59
2022/07/28 06:01:49;;;;;;;;;;;15.90;92.30;;;;;;5069100;28;19920;-57
2022/07/28 06:04:15;;;;;;;;;;;15.90;91.60;;;;;;5069729;28;19986;-57
2022/07/28 06:06:40;;;;;;;;;;;16.00;91.30;;;;;;5055226;28;19913;-59
2022/07/28 06:09:06;;;;;;;;;;;15.90;91.60;;;;;;5056013;28;19917;-58
2022/07/28 06:11:31;;;;;;;;;;;16.00;91.80;;;;;;5068307;28;19925;-58
2022/07/28 06:13:57;;;;;;;;;;;16.10;91.30;;;;;;5069860;28;19919;-58
2022/07/28 06:16:22;;;;;;;;;;;16.10;91.00;;;;;;5069028;28;19928;-59
2022/07/28 06:18:49;;;;;;;;;;;16.00;91.40;;;;;;5069875;28;19923;-54
2022/07/28 06:21:14;;;;;;;;;;;16.00;91.60;;;;;;5070995;28;20399;-58
2022/07/28 06:23:40;;;;;;;;;;;16.00;91.50;;;;;;5070996;28;19912;-58
2022/07/28 06:26:05;;;;;;;;;;;16.10;91.60;;;;;;5056987;28;19928;-59
2022/07/28 06:28:31;;;;;;;;;;;16.20;91.30;;;;;;5071092;28;20015;-59
2022/07/28 06:30:57;;;;;;;;;;;16.30;91.00;;;;;;5062433;28;19928;-59
2022/07/28 06:33:22;;;;;;;;;;;16.20;91.10;;;;;;5051659;28;19909;-58
2022/07/28 06:35:48;;;;;;;;;;;16.50;91.00;;;;;;5065322;28;19939;-60
2022/07/28 06:38:13;;;;;;;;;;;16.60;90.60;;;;;;5053774;28;20439;-59
2022/07/28 06:40:41;;;;;;;;;;;16.70;90.40;;;;;;5060994;28;19969;-59
2022/07/28 06:43:07;;;;;;;;;;;16.90;90.20;;;;;;5061272;28;19917;-59
2022/07/28 06:45:33;;;;;;;;;;;17.00;90.00;;;;;;5065146;28;20382;-57
2022/07/28 06:47:58;;;;;;;;;;;17.00;89.60;;;;;;5066740;28;19987;-59
2022/07/28 06:50:24;;;;;;;;;;;17.00;90.00;;;;;;5067363;28;20361;-59
2022/07/28 06:52:49;;;;;;;;;;;17.00;89.70;;;;;;5055149;28;19967;-57
2022/07/28 06:55:15;;;;;;;;;;;16.90;89.40;;;;;;5059406;28;19916;-62
2022/07/28 06:57:42;;;;;;;;;;;17.10;89.60;;;;;;5073925;28;20571;-63
2022/07/28 07:00:09;;;;;;;;;;;17.20;88.40;;;;;;5059367;28;19981;-61
2022/07/28 07:02:39;;;;;;;;;;;17.20;88.60;;;;;;5060694;28;19927;-61
2022/07/28 07:05:05;;;;;;;;;;;17.30;88.30;;;;;;5073598;28;20141;-60
2022/07/28 07:07:30;;;;;;;;;;;17.50;88.70;;;;;;5067273;28;20430;-60
2022/07/28 07:09:56;;;;;;;;;;;17.60;88.80;;;;;;5057952;28;19939;-60
2022/07/28 07:12:21;;;;;;;;;;;17.80;88.20;;;;;;5055330;28;19916;-61
2022/07/28 07:14:47;;;;;;;;;;;18.10;87.70;;;;;;5074129;28;19908;-62
2022/07/28 07:17:12;;;;;;;;;;;18.30;86.80;;;;;;5047776;28;19916;-60
2022/07/28 07:19:38;;;;;;;;;;;18.20;85.60;;;;;;5073180;28;19917;-61
2022/07/28 07:22:04;;;;;;;;;;;18.10;86.10;;;;;;5055369;28;20413;-61
2022/07/28 07:24:29;;;;;;;;;;;18.10;86.20;;;;;;5055263;28;20379;-61
2022/07/28 07:26:55;;;;;;;;;;;18.20;86.20;;;;;;5067079;28;19938;-60
2022/07/28 07:29:21;;;;;;;;;;;18.30;85.90;;;;;;5072499;28;20411;-61
2022/07/28 07:31:47;;;;;;;;;;;18.40;85.30;;;;;;5072149;28;20011;-60
2022/07/28 07:34:12;;;;;;;;;;;18.50;84.70;;;;;;5073441;28;19946;-60
2022/07/28 07:36:38;;;;;;;;;;;18.60;83.60;;;;;;5071640;28;19917;-62
2022/07/28 07:39:03;;;;;;;;;;;18.70;83.20;;;;;;5075109;28;20024;-62
2022/07/28 07:41:29;;;;;;;;;;;18.80;83.10;;;;;;5074287;28;20366;-61
2022/07/28 07:43:54;;;;;;;;;;;19.00;83.20;;;;;;5073080;28;20281;-62
2022/07/28 07:46:20;;;;;;;;;;;19.10;82.40;;;;;;5067813;28;19916;-62
2022/07/28 07:48:45;;;;;;;;;;;19.20;82.70;;;;;;5080182;28;19924;-63
2022/07/28 07:51:11;;;;;;;;;;;19.20;81.00;;;;;;5068182;28;19928;-61
2022/07/28 07:53:37;;;;;;;;;;;19.30;81.60;;;;;;5071853;28;19917;-64
2022/07/28 07:56:02;;;;;;;;;;;19.30;81.00;;;;;;5072797;28;20387;-66
2022/07/28 07:58:28;;;;;;;;;;;19.40;80.90;;;;;;5073440;28;19912;-61
2022/07/28 08:00:54;;;;;;;;;;;19.30;79.90;;;;;;5074436;28;20007;-63
2022/07/28 08:03:20;;;;;;;;;;;19.40;80.50;;;;;;5072079;28;19925;-60
2022/07/28 08:05:45;;;;;;;;;;;19.40;80.30;;;;;;5072794;28;20348;-60
2022/07/28 08:08:11;;;;;;;;;;;19.50;79.70;;;;;;5072908;28;19912;-60
2022/07/28 08:10:37;;;;;;;;;;;19.50;79.00;;;;;;5069725;28;19912;-60
2022/07/28 08:13:05;;;;;;;;;;;19.70;78.80;;;;;;5076888;28;19969;-60
2022/07/28 08:15:31;;;;;;;;;;;19.80;78.70;;;;;;5081565;28;19995;-63
2022/07/28 08:17:56;;;;;;;;;;;19.80;78.80;;;;;;5064857;28;19920;-61
2022/07/28 08:20:22;;;;;;;;;;;19.70;77.70;;;;;;5072123;28;19909;-59
2022/07/28 08:22:47;;;;;;;;;;;19.80;77.90;;;;;;5079893;28;19917;-59
2022/07/28 08:25:13;;;;;;;;;;;19.90;78.20;;;;;;5071615;28;19920;-60
2022/07/28 08:27:39;;;;;;;;;;;19.90;77.50;;;;;;5073692;28;19927;-59
2022/07/28 08:30:05;;;;;;;;;;;20.00;77.60;;;;;;5071362;28;19912;-59
2022/07/28 08:32:30;;;;;;;;;;;20.00;76.90;;;;;;5077074;28;19912;-59
2022/07/28 08:34:56;;;;;;;;;;;20.10;76.80;;;;;;5062825;28;20476;-59
2022/07/28 08:37:21;;;;;;;;;;;20.30;76.40;;;;;;5068957;28;19917;-59
2022/07/28 08:39:47;;;;;;;;;;;20.40;75.60;;;;;;5072534;28;19916;-59
2022/07/28 08:42:30;;;;;;;;;;;20.30;76.00;;;;;;5076759;28;19982;-59
2022/07/28 08:45:14;;;;;;;;;;;20.50;75.90;;;;;;5068902;28;20318;-61
2022/07/28 08:47:41;;;;;;;;;;;20.60;75.60;;;;;;5076145;28;19935;-60
2022/07/28 08:50:08;;;;;;;;;;;20.70;74.70;;;;;;5072902;28;19908;-60
2022/07/28 08:52:34;;;;;;;;;;;20.80;74.20;;;;;;5069971;28;19912;-57
2022/07/28 08:55:01;;;;;;;;;;;20.90;74.10;;;;;;5079587;28;19928;-61
2022/07/28 08:57:27;;;;;;;;;;;20.80;73.90;;;;;;5070491;28;19912;-61
2022/07/28 08:59:53;;;;;;;;;;;21.00;73.90;;;;;;5066569;28;19917;-60
2022/07/28 09:02:18;;;;;;;;;;;21.00;73.20;;;;;;5071543;28;20280;-58
2022/07/28 09:04:45;;;;;;;;;;;20.90;73.70;;;;;;5071618;28;19963;-59
2022/07/28 09:07:10;;;;;;;;;;;20.90;74.00;;;;;;5071386;28;19916;-60
2022/07/28 09:09:37;;;;;;;;;;;21.10;73.90;;;;;;5072112;28;19920;-60
2022/07/28 09:12:04;;;;;;;;;;;21.20;73.40;;;;;;5072874;28;19927;-61
2022/07/28 09:14:30;;;;;;;;;;;21.20;72.70;;;;;;5077650;28;19948;-60
2022/07/28 09:16:58;;;;;;;;;;;21.20;72.50;;;;;;5071861;28;20342;-60
2022/07/28 09:19:23;;;;;;;;;;;21.30;72.20;;;;;;5085089;28;19917;-59
2022/07/28 09:21:49;;;;;;;;;;;21.40;71.70;;;;;;5092468;28;19919;-57
2022/07/28 09:24:32;;;;;;;;;;;21.50;71.00;;;;;;5080819;28;19920;-58
2022/07/28 09:26:59;;;;;;;;;;;21.60;71.50;;;;;;5068256;28;19942;-58
2022/07/28 09:29:25;;;;;;;;;;;21.80;70.80;;;;;;5070884;28;19958;-58
2022/07/28 09:31:50;;;;;;;;;;;21.80;70.40;;;;;;5077700;28;20388;-58
2022/07/28 09:34:16;;;;;;;;;;;21.70;70.80;;;;;;5092405;28;19919;-59
2022/07/28 09:36:43;;;;;;;;;;;21.80;71.00;;;;;;5073143;28;19912;-58
2022/07/28 09:39:08;;;;;;;;;;;21.90;70.80;;;;;;5065009;28;19924;-59
2022/07/28 09:41:46;;;;;;;;;;;22.10;70.50;;;;;;5069582;28;20432;-60
2022/07/28 09:44:18;;;;;;;;;;;22.30;70.30;;;;;;5071222;28;19920;-60
2022/07/28 09:46:44;;;;;;;;;;;22.20;69.50;;;;;;5069292;28;19974;-59
2022/07/28 09:49:09;;;;;;;;;;;22.10;69.40;;;;;;5070751;28;19916;-60
2022/07/28 09:51:35;;;;;;;;;;;22.10;70.00;;;;;;5075827;28;20569;-60
2022/07/28 09:54:14;;;;;;;;;;;22.10;70.20;;;;;;5083562;28;20007;-59
2022/07/28 09:56:44;;;;;;;;;;;22.20;70.20;;;;;;5069537;28;19947;-63
2022/07/28 09:59:11;;;;;;;;;;;22.40;69.40;;;;;;5070898;28;20057;-57
2022/07/28 10:01:55;;;;;;;;;;;22.50;68.60;;;;;;5066682;28;19963;-59
2022/07/28 10:04:47;;;;;;;;;;;22.60;67.90;;;;;;5072412;28;20288;-56
2022/07/28 10:07:14;;;;;;;;;;;22.80;68.00;;;;;;5068043;28;19908;-58
2022/07/28 10:09:40;;;;;;;;;;;23.10;67.50;;;;;;5069149;28;19916;-60
2022/07/28 10:12:32;;;;;;;;;;;23.20;67.20;;;;;;5069000;28;20368;-60
2022/07/28 10:14:59;;;;;;;;;;;23.20;66.40;;;;;;5074143;28;20433;-57
2022/07/28 10:17:31;;;;;;;;;;;23.20;66.00;;;;;;5081405;28;20524;-60
2022/07/28 10:20:06;;;;;;;;;;;22.90;66.50;;;;;;5057104;28;19924;-57
2022/07/28 10:22:32;;;;;;;;;;;22.90;66.70;;;;;;5058955;28;19909;-56
2022/07/28 10:25:04;;;;;;;;;;;23.00;66.70;;;;;;5071927;28;19913;-59
2022/07/28 10:27:30;;;;;;;;;;;23.00;66.80;;;;;;5067066;28;19920;-57
2022/07/28 10:29:57;;;;;;;;;;;23.10;67.30;;;;;;5071230;28;19927;-60
2022/07/28 10:32:23;;;;;;;;;;;23.10;65.10;;;;;;5071111;28;19917;-60
2022/07/28 10:34:59;;;;;;;;;;;23.00;65.20;;;;;;5072357;28;20029;-61
2022/07/28 10:37:27;;;;;;;;;;;23.10;65.30;;;;;;5073179;28;19970;-60
2022/07/28 10:40:03;;;;;;;;;;;23.00;65.10;;;;;;5072379;28;19991;-60
2022/07/28 10:42:29;;;;;;;;;;;23.10;65.00;;;;;;5072643;28;19908;-60
2022/07/28 10:44:54;;;;;;;;;;;23.00;64.80;;;;;;5072805;28;20009;-59
2022/07/28 10:47:22;;;;;;;;;;;23.00;65.20;;;;;;5070316;28;19939;-57
2022/07/28 10:49:47;;;;;;;;;;;23.00;64.90;;;;;;5069762;28;19916;-58
2022/07/28 10:52:16;;;;;;;;;;;23.10;64.60;;;;;;5076147;28;19983;-59
2022/07/28 10:54:53;;;;;;;;;;;23.20;64.50;;;;;;5068209;28;19947;-59
2022/07/28 10:57:20;;;;;;;;;;;23.20;64.20;;;;;;5068912;28;19916;-58
2022/07/28 11:00:00;;;;;;;;;;;23.20;63.70;;;;;;5073150;28;19931;-60
2022/07/28 11:02:45;;;;;;;;;;;23.10;64.20;;;;;;5067667;28;19920;-61
2022/07/28 11:05:31;;;;;;;;;;;23.00;64.50;;;;;;5064650;28;19931;-57
2022/07/28 11:07:59;;;;;;;;;;;23.10;64.00;;;;;;5070634;28;19926;-60
2022/07/28 11:10:25;;;;;;;;;;;23.20;63.80;;;;;;5063856;28;19986;-57
2022/07/28 11:12:52;;;;;;;;;;;23.40;63.50;;;;;;5067208;28;20392;-59
2022/07/28 11:15:32;;;;;;;;;;;23.40;63.00;;;;;;5069597;28;19952;-61
2022/07/28 11:17:57;;;;;;;;;;;23.50;62.70;;;;;;5065442;28;20362;-56
2022/07/28 11:20:43;;;;;;;;;;;23.40;62.40;;;;;;5069028;28;20340;-59
2022/07/28 11:23:27;;;;;;;;;;;23.40;62.70;;;;;;5069006;28;19912;-60
2022/07/28 11:26:26;;;;;;;;;;;23.40;62.50;;;;;;5066120;28;19916;-60
2022/07/28 11:29:07;;;;;;;;;;;23.50;62.50;;;;;;5057185;28;19912;-58
2022/07/28 11:31:45;;;;;;;;;;;23.60;62.30;;;;;;5074288;28;19916;-60
2022/07/28 11:34:14;;;;;;;;;;;23.50;62.30;;;;;;5072851;28;20360;-61
2022/07/28 11:37:03;;;;;;;;;;;23.60;62.30;;;;;;5073778;28;20007;-54
2022/07/28 11:39:39;;;;;;;;;;;23.70;62.20;;;;;;5067589;28;19913;-63
2022/07/28 11:42:23;;;;;;;;;;;23.80;62.10;;;;;;5074101;28;19955;-56
2022/07/28 11:44:49;;;;;;;;;;;24.00;62.00;;;;;;5074516;28;19979;-56
2022/07/28 11:47:14;;;;;;;;;;;24.00;61.80;;;;;;5073405;28;19944;-57
2022/07/28 11:49:41;;;;;;;;;;;24.00;61.20;;;;;;5073507;28;19913;-55
2022/07/28 11:52:10;;;;;;;;;;;23.80;60.80;;;;;;5074894;28;19952;-57
2022/07/28 11:54:36;;;;;;;;;;;23.70;60.90;;;;;;5075403;28;19923;-60
2022/07/28 11:57:03;;;;;;;;;;;23.80;61.20;;;;;;5074690;28;20384;-55
2022/07/28 11:59:39;;;;;;;;;;;23.50;61.50;;;;;;5073629;28;19912;-62
2022/07/28 12:02:04;;;;;;;;;;;23.20;62.20;;;;;;5074336;28;19939;-63
2022/07/28 12:04:30;;;;;;;;;;;23.10;62.70;;;;;;5074408;28;19920;-64
2022/07/28 12:06:55;;;;;;;;;;;23.30;62.40;;;;;;5073959;28;19913;-63
2022/07/28 12:09:27;;;;;;;;;;;23.50;62.50;;;;;;5074062;28;19913;-57
2022/07/28 12:11:54;;;;;;;;;;;23.70;62.20;;;;;;5072025;28;19908;-60
2022/07/28 12:14:21;;;;;;;;;;;23.90;61.80;;;;;;5073747;28;19913;-54
2022/07/28 12:16:50;;;;;;;;;;;24.00;61.90;;;;;;5073857;28;19935;-57
2022/07/28 12:19:16;;;;;;;;;;;23.90;60.90;;;;;;5074254;28;19924;-58
2022/07/28 12:21:42;;;;;;;;;;;24.00;60.80;;;;;;5073538;28;20058;-56
2022/07/28 12:24:09;;;;;;;;;;;23.60;61.10;;;;;;5074126;28;19913;-58
2022/07/28 12:26:35;;;;;;;;;;;23.50;61.50;;;;;;5073307;28;19913;-59
2022/07/28 12:29:01;;;;;;;;;;;23.70;62.00;;;;;;5071538;28;20430;-64
2022/07/28 12:31:32;;;;;;;;;;;24.00;60.60;;;;;;5074116;28;19913;-59
2022/07/28 12:34:05;;;;;;;;;;;24.30;60.10;;;;;;5073914;28;19919;-53
2022/07/28 12:36:32;;;;;;;;;;;24.50;58.90;;;;;;5068616;28;19971;-56
2022/07/28 12:38:59;;;;;;;;;;;24.50;59.50;;;;;;5072846;28;19921;-57
2022/07/28 12:41:29;;;;;;;;;;;24.70;58.80;;;;;;5073334;28;20505;-55
2022/07/28 12:43:55;;;;;;;;;;;24.90;58.50;;;;;;5073350;28;19909;-57
2022/07/28 12:46:47;;;;;;;;;;;25.00;57.50;;;;;;5073585;28;19919;-56
2022/07/28 12:49:20;;;;;;;;;;;25.00;58.20;;;;;;5073260;28;19916;-55
2022/07/28 12:51:45;;;;;;;;;;;24.90;58.10;;;;;;5068518;28;19916;-56
2022/07/28 12:54:13;;;;;;;;;;;24.70;58.30;;;;;;5071994;28;19942;-54
2022/07/28 12:56:45;;;;;;;;;;;24.60;58.80;;;;;;5066231;28;19908;-58
2022/07/28 12:59:12;;;;;;;;;;;24.30;59.30;;;;;;5072336;28;19912;-57
2022/07/28 13:01:46;;;;;;;;;;;24.60;59.50;;;;;;5072699;28;19916;-57
2022/07/28 13:04:12;;;;;;;;;;;25.00;58.40;;;;;;5072723;28;19931;-59
2022/07/28 13:06:37;;;;;;;;;;;25.00;57.30;;;;;;5070724;28;20364;-59
2022/07/28 13:09:03;;;;;;;;;;;25.10;57.20;;;;;;5073123;28;19948;-58
2022/07/28 13:11:29;;;;;;;;;;;25.20;57.00;;;;;;5068359;28;20411;-59
2022/07/28 13:13:55;;;;;;;;;;;25.40;56.80;;;;;;5072533;28;20302;-57
2022/07/28 13:16:29;;;;;;;;;;;25.60;57.40;;;;;;5072420;28;19913;-58
2022/07/28 13:18:56;;;;;;;;;;;25.60;56.60;;;;;;5070800;28;19916;-58
2022/07/28 13:21:40;;;;;;;;;;;25.80;56.90;;;;;;5071385;28;20008;-56
2022/07/28 13:24:06;;;;;;;;;;;26.10;57.30;;;;;;5068528;28;19966;-58
2022/07/28 13:26:32;;;;;;;;;;;26.20;56.60;;;;;;5070125;28;19912;-58
2022/07/28 13:29:01;;;;;;;;;;;26.30;56.00;;;;;;5090408;28;19919;-59
2022/07/28 13:31:27;;;;;;;;;;;26.40;56.30;;;;;;5072570;28;19978;-56
2022/07/28 13:33:52;;;;;;;;;;;26.50;56.40;;;;;;5069050;28;20403;-59
2022/07/28 13:36:18;;;;;;;;;;;26.70;55.90;;;;;;5071548;28;20559;-57
2022/07/28 13:38:44;;;;;;;;;;;26.80;55.50;;;;;;5070528;28;19958;-57
2022/07/28 13:41:10;;;;;;;;;;;26.80;55.20;;;;;;5072052;28;20003;-56
2022/07/28 13:43:38;;;;;;;;;;;26.90;55.30;;;;;;5072352;28;19923;-55
2022/07/28 13:46:04;;;;;;;;;;;26.80;54.50;;;;;;5055769;28;19954;-57
2022/07/28 13:51:22;;;;;;;;;;;27.10;55.10;;;;;;5040471;28;19920;-54
2022/07/28 13:53:48;;;;;;;;;;;27.20;53.90;;;;;;5071257;28;19999;-53
2022/07/28 13:56:14;;;;;;;;;;;27.20;54.40;;;;;;5070646;28;20327;-60
2022/07/28 13:58:40;;;;;;;;;;;27.20;54.30;;;;;;5070949;28;20410;-58
2022/07/28 14:01:05;;;;;;;;;;;27.30;54.60;;;;;;5070368;28;19924;-56
2022/07/28 14:03:31;;;;;;;;;;;27.20;54.20;;;;;;5072298;28;19909;-58
2022/07/28 14:05:57;;;;;;;;;;;26.90;54.30;;;;;;5071641;28;20310;-59
2022/07/28 14:08:23;;;;;;;;;;;26.60;54.60;;;;;;5073190;28;20415;-58
2022/07/28 14:10:50;;;;;;;;;;;26.70;55.00;;;;;;5071702;28;19948;-58
2022/07/28 14:13:16;;;;;;;;;;;27.00;55.30;;;;;;5070496;28;19923;-55
2022/07/28 14:15:42;;;;;;;;;;;27.40;55.20;;;;;;5067735;28;20011;-55
2022/07/28 14:18:08;;;;;;;;;;;27.60;54.60;;;;;;5071118;28;19964;-56
2022/07/28 14:20:33;;;;;;;;;;;27.60;54.70;;;;;;5070175;28;19973;-58
2022/07/28 14:22:59;;;;;;;;;;;27.70;54.20;;;;;;5073042;28;19981;-57
2022/07/28 14:25:24;;;;;;;;;;;27.60;54.40;;;;;;5071925;28;19912;-55
2022/07/28 14:27:51;;;;;;;;;;;27.70;54.40;;;;;;5071199;28;20436;-55
2022/07/28 14:30:17;;;;;;;;;;;27.60;54.10;;;;;;5071184;28;19998;-59
2022/07/28 14:32:42;;;;;;;;;;;27.80;53.70;;;;;;5073329;28;19909;-54
2022/07/28 14:35:08;;;;;;;;;;;27.90;53.80;;;;;;5088860;28;19983;-58
2022/07/28 14:37:33;;;;;;;;;;;27.90;54.00;;;;;;5075831;28;20362;-58
2022/07/28 14:39:59;;;;;;;;;;;28.00;53.90;;;;;;5071186;28;19939;-58
2022/07/28 14:42:25;;;;;;;;;;;28.10;53.50;;;;;;5071463;28;20020;-54